Churchill, Virginia
Current Conditions -  °F | °C
As of 10:54 AM on Thursday 23 Oct 2014 (Local Time) from KRIC Reporting Station
Scattered Clouds Scattered Clouds  
Wind Chill: 60°   Ceiling: Unl
Heat Index: 60°   Visibility: 10mi
Dew Point: 43°   Wind: 17mph
Humidity: 53%   Direction: 310°NW
Pressure: 29.92"   Gusts: 26mph
Location:  37.556°N, 77.3779°W
Report Text: KRIC 231454Z 31015G23KT 10SM FEW030 SCT065 SCT250 16/06 A2992 RMK AO2 SLP138 T01560061 58007
Loading
Personal Weather Stations






























Interactive Weather Map
Tropical Storm Tracking
New forecast layout! Learn more

10-Day Weather Forecast

Advertisements
Track Severe Weather on mobile